Time;durP1;ratioP1;P1;durP2;ratioP2;P2;SDS_P1;SDS_P2;PMS_P1;PMS_P2;Temp;Humidity;BMP_temperature;BMP_pressure;BME280_temperature;BME280_humidity;BME280_pressure;Samples;Min_cycle;Max_cycle;Signal;HPM_P1;HPM_P2
2021/08/13 00:01:05;;;;;;;0.30;0.30;;;19.50;99.90;;;;;;4413390;32;20078;-66
2021/08/13 00:03:30;;;;;;;0.47;0.47;;;19.50;99.90;;;;;;4414873;32;20487;-66
2021/08/13 00:05:56;;;;;;;0.80;0.80;;;19.50;99.90;;;;;;4415407;32;20078;-66
2021/08/13 00:08:21;;;;;;;0.30;0.30;;;19.60;99.90;;;;;;4412964;32;20416;-68
2021/08/13 00:10:47;;;;;;;0.75;0.70;;;19.50;99.90;;;;;;4414204;32;20062;-66
2021/08/13 00:13:12;;;;;;;1.15;0.55;;;19.50;99.90;;;;;;4414847;32;20404;-66
2021/08/13 00:15:38;;;;;;;0.37;0.37;;;19.40;99.90;;;;;;4413125;32;20066;-65
2021/08/13 00:18:03;;;;;;;0.45;0.45;;;19.40;99.90;;;;;;4413723;32;20065;-66
2021/08/13 00:20:29;;;;;;;0.93;0.77;;;19.40;99.90;;;;;;4415120;32;20054;-66
2021/08/13 00:22:55;;;;;;;0.50;0.50;;;19.30;99.90;;;;;;4416564;32;20124;-66
2021/08/13 00:25:21;;;;;;;0.40;0.40;;;19.20;99.90;;;;;;4416952;32;20058;-66
2021/08/13 00:27:47;;;;;;;0.98;0.88;;;19.20;99.90;;;;;;4417799;32;20065;-67
2021/08/13 00:30:12;;;;;;;0.73;0.70;;;19.20;99.90;;;;;;4406323;32;20505;-67
2021/08/13 00:32:38;;;;;;;0.50;0.50;;;19.30;99.90;;;;;;4417081;32;20472;-67
2021/08/13 00:35:05;;;;;;;0.70;0.70;;;19.30;99.90;;;;;;4408055;32;20070;-66
2021/08/13 00:37:31;;;;;;;0.70;0.57;;;19.40;99.90;;;;;;4417272;32;20065;-67
2021/08/13 00:39:56;;;;;;;1.17;0.60;;;19.30;99.90;;;;;;4416724;32;20078;-66
2021/08/13 00:42:22;;;;;;;0.40;0.40;;;19.20;99.90;;;;;;4416824;32;20081;-66
2021/08/13 00:44:47;;;;;;;0.50;0.50;;;19.20;99.90;;;;;;4416777;32;20065;-67
2021/08/13 00:47:13;;;;;;;0.30;0.30;;;19.20;99.90;;;;;;4416395;32;20121;-66
2021/08/13 00:49:38;;;;;;;0.50;0.50;;;19.20;99.90;;;;;;4416502;32;20074;-67
2021/08/13 00:52:05;;;;;;;0.50;0.50;;;19.10;99.90;;;;;;4415608;32;20065;-66
2021/08/13 00:54:30;;;;;;;0.40;0.40;;;19.20;99.90;;;;;;4416428;32;20069;-66
2021/08/13 00:56:56;;;;;;;0.82;0.70;;;19.20;99.90;;;;;;4402152;32;20062;-65
2021/08/13 00:59:22;;;;;;;0.45;0.40;;;19.20;99.90;;;;;;4402028;32;20137;-66
2021/08/13 01:01:47;;;;;;;0.77;0.77;;;19.20;99.90;;;;;;4415864;32;20065;-66
2021/08/13 01:04:13;;;;;;;1.45;0.50;;;19.30;99.90;;;;;;4415246;32;20082;-67
2021/08/13 01:06:39;;;;;;;0.55;0.55;;;19.30;99.90;;;;;;4417080;32;20519;-66
2021/08/13 01:09:05;;;;;;;0.62;0.62;;;19.20;99.90;;;;;;4416663;32;20078;-66
2021/08/13 01:11:48;;;;;;;1.48;0.52;;;19.20;99.90;;;;;;4416504;32;20471;-66
2021/08/13 01:14:47;;;;;;;0.40;0.40;;;19.10;99.90;;;;;;4401929;32;20062;-66
2021/08/13 01:17:15;;;;;;;1.20;0.95;;;19.10;99.90;;;;;;4393253;32;20177;-66
2021/08/13 01:20:01;;;;;;;0.50;0.50;;;19.00;99.90;;;;;;4403408;32;20417;-67
2021/08/13 01:22:35;;;;;;;0.52;0.52;;;19.00;99.90;;;;;;4403977;32;20116;-65
2021/08/13 01:25:03;;;;;;;7.22;0.98;;;18.80;99.90;;;;;;4403239;32;20070;-67
2021/08/13 01:27:32;;;;;;;0.30;0.30;;;18.70;99.90;;;;;;4415532;32;20080;-66
2021/08/13 01:30:19;;;;;;;1.80;0.65;;;18.70;99.90;;;;;;4416769;32;20445;-66
2021/08/13 01:33:06;;;;;;;3.00;0.85;;;18.80;99.90;;;;;;4391024;32;20073;-66
2021/08/13 01:35:33;;;;;;;0.75;0.70;;;18.90;99.90;;;;;;4405217;32;20510;-67
2021/08/13 01:38:04;;;;;;;0.70;0.50;;;18.90;99.90;;;;;;4402635;32;20082;-66
2021/08/13 01:40:30;;;;;;;;;;;18.90;99.90;;;;;;4403181;32;20055;-66
2021/08/13 01:42:58;;;;;;;1.95;0.80;;;19.00;99.90;;;;;;4401646;32;19949;-67
2021/08/13 01:45:33;;;;;;;0.82;0.65;;;19.00;99.90;;;;;;4415821;32;20085;-65
2021/08/13 01:48:00;;;;;;;0.40;0.40;;;19.00;99.90;;;;;;4400832;32;20475;-67
2021/08/13 01:50:26;;;;;;;0.77;0.62;;;19.00;99.90;;;;;;4389747;32;20057;-66
2021/08/13 01:52:55;;;;;;;0.55;0.50;;;19.10;99.90;;;;;;4416148;32;20061;-67
2021/08/13 01:55:21;;;;;;;0.75;0.75;;;19.00;99.90;;;;;;4401148;32;20108;-66
2021/08/13 01:57:47;;;;;;;0.52;0.52;;;19.10;99.90;;;;;;4389788;32;20116;-65
2021/08/13 02:00:16;;;;;;;0.52;0.52;;;19.10;99.90;;;;;;4415412;32;20143;-66
2021/08/13 02:02:43;;;;;;;3.58;1.23;;;19.10;99.90;;;;;;4415861;32;20066;-66
2021/08/13 02:05:10;;;;;;;3.78;0.95;;;19.00;99.90;;;;;;4401261;32;20057;-66
2021/08/13 02:07:39;;;;;;;0.40;0.40;;;18.90;99.90;;;;;;4415951;32;20086;-66
2021/08/13 02:10:07;;;;;;;0.40;0.40;;;18.90;99.90;;;;;;4415381;32;20070;-66
2021/08/13 02:12:33;;;;;;;0.32;0.32;;;18.90;99.90;;;;;;4402347;32;20081;-66
2021/08/13 02:14:58;;;;;;;6.12;1.12;;;18.90;99.90;;;;;;4414758;32;20069;-66
2021/08/13 02:17:28;;;;;;;1.02;0.50;;;18.80;99.90;;;;;;4415132;32;20535;-65
2021/08/13 02:20:01;;;;;;;0.50;0.50;;;18.90;99.90;;;;;;4415741;32;20405;-65
2021/08/13 02:22:27;;;;;;;1.65;0.43;;;18.90;99.90;;;;;;4401839;32;20082;-66
2021/08/13 02:24:52;;;;;;;0.62;0.60;;;18.80;99.90;;;;;;4415603;32;20081;-66
2021/08/13 02:27:18;;;;;;;0.70;0.70;;;18.70;99.90;;;;;;4414675;32;20073;-66
2021/08/13 02:29:44;;;;;;;0.40;0.40;;;18.70;99.90;;;;;;4415307;32;20411;-66
2021/08/13 02:32:10;;;;;;;0.55;0.55;;;18.60;99.90;;;;;;4414663;32;20078;-66
2021/08/13 02:34:37;;;;;;;0.37;0.37;;;18.60;99.90;;;;;;4414748;32;20090;-66
2021/08/13 02:37:13;;;;;;;0.65;0.65;;;18.60;99.90;;;;;;4401497;32;20552;-67
2021/08/13 02:39:49;;;;;;;0.52;0.52;;;18.60;99.90;;;;;;4389290;32;20074;-66
2021/08/13 02:42:20;;;;;;;1.40;0.88;;;18.70;99.90;;;;;;4401884;32;20062;-66
2021/08/13 02:44:51;;;;;;;0.52;0.52;;;18.60;99.90;;;;;;4402291;32;20495;-66
2021/08/13 02:47:18;;;;;;;7.35;2.03;;;18.50;99.90;;;;;;4415381;32;20062;-67
2021/08/13 02:49:56;;;;;;;0.30;0.30;;;18.50;99.90;;;;;;4400568;32;20094;-66
2021/08/13 02:52:29;;;;;;;4.43;0.60;;;18.50;99.90;;;;;;4414950;32;20394;-67
2021/08/13 02:55:00;;;;;;;1.55;0.50;;;18.50;99.90;;;;;;4414635;32;20464;-66
2021/08/13 02:57:30;;;;;;;0.90;0.50;;;18.60;99.90;;;;;;4402659;32;20123;-65
2021/08/13 02:59:56;;;;;;;0.62;0.50;;;18.50;99.90;;;;;;4415579;32;20082;-66
2021/08/13 03:02:23;;;;;;;0.60;0.57;;;18.30;99.90;;;;;;4415176;32;20058;-65
2021/08/13 03:04:51;;;;;;;0.57;0.57;;;18.30;99.90;;;;;;4422616;32;20061;-66
2021/08/13 03:07:19;;;;;;;1.17;0.68;;;18.30;99.90;;;;;;4417187;32;20068;-66
2021/08/13 03:09:45;;;;;;;0.62;0.30;;;18.40;99.90;;;;;;4416287;32;20061;-66
2021/08/13 03:12:11;;;;;;;0.40;0.40;;;18.50;99.90;;;;;;4416574;32;20087;-66
2021/08/13 03:14:39;;;;;;;0.60;0.60;;;18.40;99.90;;;;;;4429336;32;20062;-66
2021/08/13 03:17:05;;;;;;;1.08;0.40;;;18.40;99.90;;;;;;4416180;32;20072;-66
2021/08/13 03:19:31;;;;;;;2.25;1.05;;;18.50;99.90;;;;;;4429389;32;20432;-65
2021/08/13 03:21:57;;;;;;;0.50;0.50;;;18.40;99.90;;;;;;4429228;32;20077;-65
2021/08/13 03:24:22;;;;;;;0.35;0.35;;;18.50;99.90;;;;;;4430423;32;20523;-66
2021/08/13 03:26:49;;;;;;;0.68;0.68;;;18.50;99.90;;;;;;4416545;32;20072;-66
2021/08/13 03:29:16;;;;;;;0.80;0.60;;;18.50;99.90;;;;;;4408499;32;20074;-66
2021/08/13 03:31:44;;;;;;;1.27;0.70;;;18.50;99.90;;;;;;4397614;32;20122;-65
2021/08/13 03:34:10;;;;;;;0.40;0.40;;;18.60;99.90;;;;;;4403770;32;20058;-66
2021/08/13 03:36:37;;;;;;;0.45;0.45;;;18.60;99.90;;;;;;4414975;32;20061;-66
2021/08/13 03:39:05;;;;;;;0.82;0.82;;;18.60;99.90;;;;;;4401634;32;20208;-65
2021/08/13 03:41:31;;;;;;;0.73;0.60;;;18.60;99.90;;;;;;4415256;32;20066;-68
2021/08/13 03:43:56;;;;;;;0.90;0.70;;;18.40;99.90;;;;;;4412626;32;20425;-66
2021/08/13 03:46:22;;;;;;;0.30;0.30;;;18.40;99.90;;;;;;4413008;32;20085;-66
2021/08/13 03:48:47;;;;;;;0.73;0.68;;;18.50;99.90;;;;;;4414543;32;20053;-66
2021/08/13 03:51:13;;;;;;;0.40;0.40;;;18.60;99.90;;;;;;4414480;32;20820;-66
2021/08/13 03:53:38;;;;;;;1.55;0.88;;;18.40;99.90;;;;;;4415336;32;20061;-65
2021/08/13 03:56:04;;;;;;;0.77;0.77;;;18.30;99.90;;;;;;4413435;32;20066;-66
2021/08/13 03:58:30;;;;;;;0.68;0.43;;;18.40;99.90;;;;;;4413852;32;20058;-67
2021/08/13 04:00:55;;;;;;;0.35;0.35;;;18.40;99.90;;;;;;4415187;32;20573;-66
2021/08/13 04:03:21;;;;;;;5.40;1.12;;;18.40;99.90;;;;;;4414318;32;20054;-66
2021/08/13 04:05:46;;;;;;;1.05;0.95;;;18.40;99.90;;;;;;4413732;32;20401;-66
2021/08/13 04:08:11;;;;;;;1.45;1.05;;;18.40;99.90;;;;;;4414275;32;20145;-65
2021/08/13 04:10:37;;;;;;;0.37;0.37;;;18.40;99.90;;;;;;4412942;32;20074;-65
2021/08/13 04:13:02;;;;;;;0.90;0.90;;;18.40;99.90;;;;;;4414448;32;20432;-66
2021/08/13 04:15:29;;;;;;;0.40;0.40;;;18.50;99.90;;;;;;4415552;32;20061;-66
2021/08/13 04:17:55;;;;;;;6.05;0.82;;;18.60;99.90;;;;;;4413198;32;20113;-66
2021/08/13 04:20:21;;;;;;;0.68;0.68;;;18.70;99.90;;;;;;4413585;32;20078;-66
2021/08/13 04:22:46;;;;;;;1.25;0.80;;;18.70;99.90;;;;;;4405465;32;20070;-66
2021/08/13 04:25:12;;;;;;;0.62;0.50;;;18.60;99.90;;;;;;4395414;32;20074;-66
2021/08/13 04:27:37;;;;;;;0.50;0.50;;;18.60;99.90;;;;;;4402797;32;20070;-65
2021/08/13 04:30:03;;;;;;;0.70;0.70;;;18.60;99.90;;;;;;4413228;32;20066;-66
2021/08/13 04:32:29;;;;;;;2.05;1.52;;;18.50;99.90;;;;;;4413243;32;20066;-66
2021/08/13 04:34:55;;;;;;;1.75;1.05;;;18.40;99.90;;;;;;4407935;32;20061;-66
2021/08/13 04:37:20;;;;;;;0.30;0.30;;;18.50;99.90;;;;;;4413321;32;20380;-66
2021/08/13 04:39:46;;;;;;;0.60;0.60;;;18.40;99.90;;;;;;4414628;32;20069;-66
2021/08/13 04:42:11;;;;;;;1.37;1.12;;;18.40;99.90;;;;;;4400864;32;20059;-66
2021/08/13 04:44:37;;;;;;;0.85;0.60;;;18.40;99.90;;;;;;4414145;32;20078;-66
2021/08/13 04:47:04;;;;;;;0.73;0.73;;;18.40;99.90;;;;;;4413356;32;20062;-66
2021/08/13 04:49:30;;;;;;;0.43;0.43;;;18.40;99.90;;;;;;4414161;32;20062;-66
2021/08/13 04:51:56;;;;;;;1.75;0.70;;;18.40;99.90;;;;;;4399290;32;20070;-65
2021/08/13 04:54:21;;;;;;;0.65;0.65;;;18.40;99.90;;;;;;4401297;32;20070;-66
2021/08/13 04:56:47;;;;;;;0.57;0.57;;;18.40;99.90;;;;;;4398759;32;20117;-67
2021/08/13 04:59:12;;;;;;;0.40;0.40;;;18.40;99.90;;;;;;4404696;32;20556;-67
2021/08/13 05:01:38;;;;;;;0.60;0.60;;;18.50;99.90;;;;;;4396662;32;20078;-66
2021/08/13 05:04:04;;;;;;;0.55;0.55;;;18.70;99.90;;;;;;4408096;32;20085;-67
2021/08/13 05:06:30;;;;;;;0.60;0.60;;;18.60;99.90;;;;;;4402495;32;20066;-66
2021/08/13 05:08:55;;;;;;;0.50;0.50;;;18.70;99.90;;;;;;4406855;32;20093;-66
2021/08/13 05:11:21;;;;;;;1.65;0.80;;;18.70;99.90;;;;;;4408577;32;20086;-66
2021/08/13 05:13:46;;;;;;;1.77;1.00;;;18.70;99.90;;;;;;4411695;32;20069;-66
2021/08/13 05:16:12;;;;;;;1.40;0.75;;;18.70;99.90;;;;;;4408631;32;20062;-67
2021/08/13 05:18:37;;;;;;;0.50;0.50;;;18.60;99.90;;;;;;4397692;32;20425;-66
2021/08/13 05:21:03;;;;;;;1.42;1.00;;;18.60;99.90;;;;;;4410122;32;20093;-66
2021/08/13 05:23:28;;;;;;;2.17;1.12;;;18.60;99.90;;;;;;4408699;32;20069;-66
2021/08/13 05:25:58;;;;;;;0.73;0.73;;;18.60;99.90;;;;;;4408774;32;20058;-67
2021/08/13 05:28:24;;;;;;;0.60;0.60;;;18.60;99.90;;;;;;4388772;32;20085;-66
2021/08/13 05:30:49;;;;;;;0.50;0.50;;;18.60;99.90;;;;;;4374678;32;20515;-66
2021/08/13 05:33:15;;;;;;;1.45;0.77;;;18.60;99.90;;;;;;4394336;32;20149;-68
2021/08/13 05:35:41;;;;;;;0.65;0.65;;;18.70;99.90;;;;;;4405131;32;20535;-66
2021/08/13 05:38:06;;;;;;;0.43;0.43;;;18.80;99.90;;;;;;4407927;32;20073;-65
2021/08/13 05:40:32;;;;;;;0.40;0.40;;;18.80;99.90;;;;;;4408277;32;20737;-66
2021/08/13 05:42:59;;;;;;;0.62;0.50;;;18.90;99.90;;;;;;4388595;32;20061;-66
2021/08/13 05:45:25;;;;;;;1.48;0.82;;;18.90;99.90;;;;;;4409464;32;20073;-66
2021/08/13 05:47:50;;;;;;;0.98;0.57;;;18.90;99.90;;;;;;4405198;32;20432;-66
2021/08/13 05:50:17;;;;;;;0.30;0.30;;;18.90;99.90;;;;;;4408046;32;20391;-66
2021/08/13 05:52:43;;;;;;;2.28;0.60;;;19.00;99.90;;;;;;4403976;32;20583;-66
2021/08/13 05:55:09;;;;;;;1.20;0.60;;;18.90;99.90;;;;;;4404773;32;20514;-66
2021/08/13 05:57:35;;;;;;;0.65;0.65;;;18.90;99.90;;;;;;4401918;32;20074;-65
2021/08/13 06:00:00;;;;;;;0.75;0.65;;;18.90;99.90;;;;;;4384422;32;20169;-66
2021/08/13 06:02:26;;;;;;;0.62;0.62;;;18.90;99.90;;;;;;4399424;32;20182;-66
2021/08/13 06:04:51;;;;;;;0.95;0.70;;;19.00;99.90;;;;;;4399588;32;20444;-66
2021/08/13 06:07:17;;;;;;;7.65;2.37;;;19.20;99.90;;;;;;4401433;32;20062;-66
2021/08/13 06:09:42;;;;;;;11.20;2.20;;;19.40;99.90;;;;;;4403759;32;20085;-66
2021/08/13 06:12:08;;;;;;;0.68;0.68;;;19.40;99.90;;;;;;4401450;32;20081;-65
2021/08/13 06:14:33;;;;;;;1.30;1.05;;;19.50;99.90;;;;;;4400179;32;20081;-65
2021/08/13 06:17:00;;;;;;;0.75;0.55;;;19.60;99.90;;;;;;4401522;32;20074;-65
2021/08/13 06:19:26;;;;;;;0.62;0.62;;;19.60;99.90;;;;;;4386175;32;20096;-65
2021/08/13 06:21:51;;;;;;;1.10;0.80;;;19.70;99.90;;;;;;4400825;32;95742;-65
2021/08/13 06:24:17;;;;;;;0.55;0.55;;;19.80;99.90;;;;;;4404194;32;20142;-63
2021/08/13 06:26:42;;;;;;;0.70;0.62;;;19.80;99.90;;;;;;4403615;32;20085;-63
2021/08/13 06:29:08;;;;;;;2.28;0.98;;;19.80;99.90;;;;;;4393642;32;20050;-64
2021/08/13 06:31:33;;;;;;;0.40;0.40;;;19.90;99.90;;;;;;4404527;32;20451;-64
2021/08/13 06:33:59;;;;;;;0.47;0.47;;;20.00;99.90;;;;;;4401162;32;20484;-64
2021/08/13 06:36:24;;;;;;;1.95;1.45;;;20.10;99.90;;;;;;4404789;32;20116;-64
2021/08/13 06:38:50;;;;;;;0.50;0.50;;;20.20;99.90;;;;;;4402261;32;20065;-62
2021/08/13 06:41:15;;;;;;;0.60;0.60;;;20.30;99.90;;;;;;4406180;32;20318;-64
2021/08/13 06:43:41;;;;;;;1.40;0.80;;;20.40;99.90;;;;;;4394240;32;21138;-64
2021/08/13 06:46:06;;;;;;;1.05;0.80;;;20.50;99.90;;;;;;4404783;32;20562;-64
2021/08/13 06:48:32;;;;;;;1.05;0.82;;;20.60;99.90;;;;;;4406095;32;20140;-64
2021/08/13 06:50:57;;;;;;;0.52;0.52;;;20.60;99.90;;;;;;4401511;32;20626;-63
2021/08/13 06:53:23;;;;;;;3.33;1.12;;;20.70;99.90;;;;;;4397497;32;20101;-64
2021/08/13 06:55:48;;;;;;;0.50;0.50;;;20.80;99.90;;;;;;4403499;32;20093;-64
2021/08/13 06:58:14;;;;;;;0.60;0.60;;;20.80;99.90;;;;;;4402207;32;20106;-64
2021/08/13 07:00:40;;;;;;;0.75;0.75;;;20.90;99.90;;;;;;4402736;32;20062;-63
2021/08/13 07:03:05;;;;;;;0.98;0.77;;;21.00;99.90;;;;;;4402356;32;20086;-64
2021/08/13 07:05:31;;;;;;;2.03;1.02;;;21.00;99.90;;;;;;4399012;32;20081;-64
2021/08/13 07:07:56;;;;;;;6.20;2.42;;;21.10;99.90;;;;;;4404287;32;20094;-64
2021/08/13 07:10:22;;;;;;;0.90;0.75;;;21.10;99.90;;;;;;4405888;32;20062;-67
2021/08/13 07:12:47;;;;;;;0.43;0.43;;;21.20;99.90;;;;;;4390339;32;21276;-65
2021/08/13 07:15:13;;;;;;;0.65;0.65;;;21.30;99.90;;;;;;4399643;32;20579;-65
2021/08/13 07:17:39;;;;;;;0.82;0.80;;;21.30;99.90;;;;;;4406340;32;20057;-65
2021/08/13 07:20:07;;;;;;;0.60;0.60;;;21.40;99.90;;;;;;4399663;32;20113;-65
2021/08/13 07:22:33;;;;;;;0.52;0.50;;;21.50;99.90;;;;;;4389161;32;20113;-65
2021/08/13 07:24:59;;;;;;;1.45;0.82;;;21.60;99.90;;;;;;4390033;32;20074;-65
2021/08/13 07:27:27;;;;;;;0.70;0.70;;;21.60;99.90;;;;;;4385707;32;20078;-65
2021/08/13 07:29:53;;;;;;;0.62;0.50;;;21.70;99.90;;;;;;4401573;32;20498;-65
2021/08/13 07:32:19;;;;;;;2.92;1.52;;;21.80;99.90;;;;;;4401873;32;20166;-65
2021/08/13 07:34:44;;;;;;;1.23;0.95;;;21.90;99.90;;;;;;4387251;32;20145;-67
2021/08/13 07:37:10;;;;;;;1.52;0.90;;;22.00;99.90;;;;;;4397851;32;20182;-67
2021/08/13 07:39:36;;;;;;;0.50;0.50;;;22.20;99.90;;;;;;4398700;32;20115;-67
2021/08/13 07:42:03;;;;;;;0.70;0.70;;;22.30;99.90;;;;;;4401418;32;20440;-66
2021/08/13 07:44:29;;;;;;;0.60;0.60;;;22.50;99.90;;;;;;4387209;32;20085;-65
2021/08/13 07:46:54;;;;;;;0.73;0.73;;;22.50;99.90;;;;;;4399564;32;20110;-67
2021/08/13 07:49:20;;;;;;;0.45;0.40;;;22.60;99.90;;;;;;4397880;32;20074;-67
2021/08/13 07:51:45;;;;;;;4.10;1.48;;;22.70;99.90;;;;;;4396684;32;20132;-67
2021/08/13 07:54:11;;;;;;;0.95;0.88;;;22.90;99.90;;;;;;4380813;32;20098;-67
2021/08/13 07:56:36;;;;;;;0.35;0.35;;;23.00;99.90;;;;;;4401280;32;20110;-67
2021/08/13 07:59:02;;;;;;;2.45;0.82;;;23.10;99.90;;;;;;4405150;32;20061;-66
2021/08/13 08:01:27;;;;;;;0.55;0.55;;;23.30;99.90;;;;;;4404713;32;20073;-66
2021/08/13 08:03:53;;;;;;;1.23;0.82;;;23.40;99.90;;;;;;4405269;32;20258;-66
2021/08/13 08:06:18;;;;;;;0.80;0.70;;;23.40;99.90;;;;;;4402334;32;20108;-66
2021/08/13 08:08:44;;;;;;;2.62;1.08;;;23.50;99.90;;;;;;4389321;32;20087;-66
2021/08/13 08:11:09;;;;;;;1.08;0.85;;;23.70;99.90;;;;;;4404498;32;20049;-66
2021/08/13 08:13:34;;;;;;;1.30;0.60;;;23.70;99.90;;;;;;4406207;32;20542;-67
2021/08/13 08:16:02;;;;;;;0.35;0.35;;;23.70;99.90;;;;;;4406605;32;20152;-66
2021/08/13 08:18:29;;;;;;;0.55;0.55;;;23.80;99.90;;;;;;4401659;32;20076;-66
2021/08/13 08:20:55;;;;;;;0.60;0.43;;;24.00;99.90;;;;;;4405698;32;20155;-67
2021/08/13 08:23:21;;;;;;;0.40;0.40;;;24.00;99.90;;;;;;4405354;32;20324;-66
2021/08/13 08:25:46;;;;;;;0.40;0.40;;;24.10;99.90;;;;;;4391121;32;20070;-67
2021/08/13 08:28:12;;;;;;;4.20;0.98;;;24.20;99.90;;;;;;4400867;32;20125;-66
2021/08/13 08:30:38;;;;;;;0.37;0.37;;;24.30;99.90;;;;;;4398763;32;20942;-66
2021/08/13 08:33:03;;;;;;;0.40;0.40;;;24.40;99.90;;;;;;4385681;32;20085;-67
2021/08/13 08:35:29;;;;;;;0.32;0.32;;;24.40;99.90;;;;;;4394338;32;20074;-67
2021/08/13 08:37:56;;;;;;;0.93;0.60;;;24.50;99.90;;;;;;4375265;32;20066;-67
2021/08/13 08:40:25;;;;;;;5.43;1.12;;;24.60;99.90;;;;;;4398662;32;20077;-68
2021/08/13 08:42:52;;;;;;;0.98;0.60;;;24.70;99.90;;;;;;4400588;32;20129;-67
2021/08/13 08:45:18;;;;;;;1.42;1.00;;;24.70;99.90;;;;;;4389070;32;20124;-67
2021/08/13 08:47:44;;;;;;;0.30;0.30;;;24.70;99.90;;;;;;4402633;32;20074;-67
2021/08/13 08:50:11;;;;;;;0.50;0.50;;;24.80;99.90;;;;;;4391363;32;20069;-67
2021/08/13 08:52:39;;;;;;;0.50;0.50;;;24.90;99.90;;;;;;4402156;32;20075;-67
2021/08/13 08:55:07;;;;;;;0.40;0.40;;;25.00;99.90;;;;;;4405812;32;20062;-67
2021/08/13 08:57:34;;;;;;;0.30;0.30;;;25.10;99.90;;;;;;4391047;32;20086;-67
2021/08/13 08:59:59;;;;;;;0.32;0.32;;;25.10;99.90;;;;;;4406472;32;20061;-67
2021/08/13 09:02:25;;;;;;;2.67;0.88;;;25.30;99.90;;;;;;4388249;32;20078;-66
2021/08/13 09:04:51;;;;;;;0.30;0.30;;;25.40;99.90;;;;;;4391474;32;20512;-67
2021/08/13 09:07:16;;;;;;;0.85;0.40;;;25.50;99.90;;;;;;4405781;32;20066;-67
2021/08/13 09:09:42;;;;;;;0.20;0.20;;;25.60;99.90;;;;;;4407091;32;20066;-67
2021/08/13 09:12:08;;;;;;;0.60;0.60;;;25.80;99.90;;;;;;4403464;32;20543;-66
2021/08/13 09:14:40;;;;;;;1.17;0.73;;;25.80;99.90;;;;;;4388899;32;20129;-66
2021/08/13 09:17:06;;;;;;;0.43;0.43;;;26.00;99.90;;;;;;4402447;32;20126;-66
2021/08/13 09:19:41;;;;;;;2.30;0.95;;;26.10;99.90;;;;;;4385856;32;20094;-66
2021/08/13 09:22:09;;;;;;;2.00;0.75;;;26.20;99.90;;;;;;4399418;32;20077;-65
2021/08/13 09:24:38;;;;;;;1.02;0.62;;;26.40;99.90;;;;;;4370973;32;20062;-66
2021/08/13 09:27:25;;;;;;;3.45;0.60;;;26.50;99.60;;;;;;4484269;27;20065;-73
2021/08/13 09:30:09;;;;;;;0.57;0.57;;;26.50;99.30;;;;;;4431236;32;20684;-73
2021/08/13 09:32:35;;;;;;;1.17;0.60;;;26.70;98.60;;;;;;4435923;32;20057;-74
2021/08/13 09:35:03;;;;;;;0.43;0.40;;;26.80;99.90;;;;;;4432794;32;20065;-74
2021/08/13 09:37:29;;;;;;;0.65;0.65;;;26.90;98.40;;;;;;4435840;32;20107;-74
2021/08/13 09:39:57;;;;;;;1.10;0.80;;;27.00;98.80;;;;;;4437282;32;20093;-74
2021/08/13 09:42:33;;;;;;;0.22;0.13;;;26.90;97.70;;;;;;4440337;32;20538;-74
2021/08/13 09:45:01;;;;;;;0.30;0.30;;;26.90;98.50;;;;;;4435403;32;20522;-74
2021/08/13 09:47:47;;;;;;;7.50;1.33;;;27.10;98.50;;;;;;4436325;32;20400;-74
2021/08/13 09:50:18;;;;;;;0.30;0.30;;;27.30;97.90;;;;;;4424676;32;20162;-73
2021/08/13 09:53:08;;;;;;;0.77;0.50;;;27.40;97.60;;;;;;4430430;32;20085;-73
2021/08/13 09:55:35;;;;;;;0.20;0.20;;;27.50;96.60;;;;;;4429173;32;20081;-74
2021/08/13 09:58:00;;;;;;;0.35;0.20;;;27.60;96.50;;;;;;4436783;32;20077;-73
2021/08/13 10:00:26;;;;;;;1.08;0.68;;;27.80;97.10;;;;;;4439714;32;20070;-74
2021/08/13 10:03:03;;;;;;;0.52;0.52;;;28.10;96.70;;;;;;4441048;32;20506;-74
2021/08/13 10:05:30;;;;;;;0.40;0.40;;;28.40;96.70;;;;;;4437183;32;20136;-73
2021/08/13 10:08:00;;;;;;;0.22;0.20;;;28.50;96.00;;;;;;4436569;32;20094;-73
2021/08/13 10:10:29;;;;;;;0.60;0.60;;;28.60;95.80;;;;;;4430235;32;20415;-74
2021/08/13 10:12:55;;;;;;;7.85;0.47;;;28.70;94.40;;;;;;4434453;32;20121;-74
2021/08/13 10:15:32;;;;;;;0.28;0.28;;;28.60;95.00;;;;;;4436585;32;20349;-74
2021/08/13 10:18:00;;;;;;;0.30;0.30;;;29.00;94.80;;;;;;4433854;32;20122;-73
2021/08/13 10:20:28;;;;;;;0.10;0.10;;;28.90;94.70;;;;;;4435139;32;20086;-76
2021/08/13 10:22:54;;;;;;;0.35;0.35;;;28.90;94.80;;;;;;4434348;32;20423;-76
2021/08/13 10:25:21;;;;;;;0.32;0.32;;;29.00;94.60;;;;;;4431094;32;20077;-76
2021/08/13 10:27:47;;;;;;;0.32;0.32;;;29.10;93.70;;;;;;4438926;32;20081;-76
2021/08/13 10:30:15;;;;;;;0.50;0.50;;;29.30;93.50;;;;;;4446412;32;20077;-76
2021/08/13 10:32:41;;;;;;;3.92;0.57;;;29.50;93.70;;;;;;4441487;32;20098;-76
2021/08/13 10:35:07;;;;;;;3.83;1.08;;;29.60;93.40;;;;;;4463751;27;20092;-63
2021/08/13 10:37:33;;;;;;;0.22;0.22;;;29.60;93.30;;;;;;4437392;32;20088;-63
2021/08/13 10:39:59;;;;;;;0.47;0.20;;;29.90;92.90;;;;;;4421012;32;20065;-63
2021/08/13 10:42:27;;;;;;;0.10;0.10;;;30.00;92.00;;;;;;4435810;32;20167;-64
2021/08/13 10:44:58;;;;;;;0.25;0.25;;;30.30;92.00;;;;;;4440868;32;20551;-66
2021/08/13 10:47:34;;;;;;;1.60;0.85;;;30.50;91.90;;;;;;4426528;32;20065;-64
2021/08/13 10:50:03;;;;;;;0.40;0.37;;;30.40;91.80;;;;;;4437254;32;20082;-66
2021/08/13 10:52:34;;;;;;;0.25;0.22;;;30.60;92.40;;;;;;4442387;32;20137;-64
2021/08/13 10:55:00;;;;;;;2.78;0.70;;;30.30;90.60;;;;;;4418087;32;20069;-65
2021/08/13 10:57:49;;;;;;;0.05;0.05;;;30.30;91.00;;;;;;4414048;32;20577;-64
2021/08/13 11:00:17;;;;;;;0.05;0.05;;;30.40;91.00;;;;;;4430628;32;20081;-64
2021/08/13 11:03:19;;;;;;;0.30;0.30;;;30.40;90.50;;;;;;4424694;32;20069;-64
2021/08/13 11:06:00;;;;;;;0.47;0.40;;;30.60;91.10;;;;;;4429207;32;20438;-64
2021/08/13 11:08:46;;;;;;;3.83;1.37;;;30.70;89.70;;;;;;4438482;32;20081;-64
2021/08/13 11:11:16;;;;;;;13.25;1.70;;;30.90;88.80;;;;;;4438014;32;20085;-64
2021/08/13 11:13:44;;;;;;;0.90;0.55;;;30.80;90.10;;;;;;4427625;32;20068;-64
2021/08/13 11:16:31;;;;;;;0.20;0.20;;;30.90;89.20;;;;;;4428652;32;20211;-64
2021/08/13 11:19:02;;;;;;;0.30;0.30;;;30.80;89.60;;;;;;4370616;32;20101;-64
2021/08/13 11:21:34;;;;;;;1.83;0.10;;;31.10;90.00;;;;;;4349320;32;20116;-65
2021/08/13 11:24:02;;;;;;;5.93;1.27;;;31.40;90.20;;;;;;4422455;32;20464;-65
2021/08/13 11:26:49;;;;;;;0.13;0.13;;;31.50;90.00;;;;;;4434650;32;20077;-65
2021/08/13 11:29:34;;;;;;;8.25;0.82;;;31.60;87.10;;;;;;4422219;32;20086;-65
2021/08/13 11:32:04;;;;;;;0.20;0.20;;;31.90;86.20;;;;;;4422445;32;20080;-66
2021/08/13 11:35:06;;;;;;;5.50;0.47;;;32.20;84.50;;;;;;4440801;32;20085;-66
2021/08/13 11:37:38;;;;;;;0.20;0.20;;;32.60;83.00;;;;;;4422440;32;20183;-65
2021/08/13 11:40:24;;;;;;;0.40;0.40;;;32.50;82.90;;;;;;4434947;32;20057;-65
2021/08/13 11:42:52;;;;;;;0.35;0.32;;;32.50;82.00;;;;;;4424011;32;20522;-65
2021/08/13 11:45:20;;;;;;;0.10;0.10;;;32.60;81.40;;;;;;4431874;32;24765;-65
2021/08/13 11:47:53;;;;;;;1.00;0.37;;;32.80;81.00;;;;;;4425031;32;20199;-66
2021/08/13 11:50:20;;;;;;;0.40;0.25;;;32.90;81.50;;;;;;4437768;32;20077;-66
2021/08/13 11:52:48;;;;;;;0.10;0.10;;;32.90;81.10;;;;;;4420185;32;20548;-66
2021/08/13 11:55:21;;;;;;;0.40;0.35;;;32.90;80.90;;;;;;4423903;32;20105;-66
2021/08/13 11:57:47;;;;;;;1.30;0.60;;;32.90;82.00;;;;;;4432269;32;20090;-66
2021/08/13 12:00:16;;;;;;;0.05;0.05;;;33.20;79.80;;;;;;4416267;32;20107;-66
2021/08/13 12:02:42;;;;;;;0.57;0.30;;;32.90;80.50;;;;;;4420528;32;20108;-66
2021/08/13 12:05:10;;;;;;;2.78;0.77;;;33.00;80.40;;;;;;4431883;32;20076;-66
2021/08/13 12:07:36;;;;;;;0.40;0.40;;;33.20;78.50;;;;;;4438047;32;20087;-66
2021/08/13 12:10:11;;;;;;;0.25;0.25;;;32.80;77.90;;;;;;4437538;32;20162;-66
2021/08/13 12:12:36;;;;;;;0.30;0.30;;;32.90;80.60;;;;;;4432659;32;20065;-66
2021/08/13 12:15:02;;;;;;;0.30;0.30;;;32.80;80.60;;;;;;4441201;32;20151;-66
2021/08/13 12:17:28;;;;;;;0.47;0.47;;;32.90;81.00;;;;;;4431292;32;20518;-66
2021/08/13 12:19:55;;;;;;;0.50;0.50;;;32.80;79.70;;;;;;4437964;32;20435;-66
2021/08/13 12:22:39;;;;;;;0.10;0.10;;;32.60;80.80;;;;;;4423091;32;20775;-66
2021/08/13 12:25:07;;;;;;;0.40;0.32;;;32.30;79.50;;;;;;4435910;32;20078;-66
2021/08/13 12:27:36;;;;;;;0.35;0.35;;;32.40;79.90;;;;;;4437645;32;20061;-66
2021/08/13 12:30:14;;;;;;;1.27;0.47;;;32.40;79.10;;;;;;4434742;32;20065;-66
2021/08/13 12:32:41;;;;;;;0.13;0.13;;;32.50;79.70;;;;;;4439496;32;20057;-66
2021/08/13 12:35:09;;;;;;;0.10;0.10;;;32.60;81.30;;;;;;4436299;32;20121;-67
2021/08/13 12:37:36;;;;;;;0.15;0.15;;;32.70;82.20;;;;;;4437050;32;20066;-66
2021/08/13 12:40:03;;;;;;;1.17;0.65;;;32.60;80.20;;;;;;4439547;32;20069;-66
2021/08/13 12:42:29;;;;;;;0.60;0.60;;;32.40;81.10;;;;;;4434979;32;20077;-66
2021/08/13 12:44:55;;;;;;;0.15;0.15;;;32.20;81.20;;;;;;4443656;32;20436;-66
2021/08/13 12:47:22;;;;;;;5.07;0.90;;;32.20;82.40;;;;;;4433085;32;20494;-65
2021/08/13 12:49:48;;;;;;;1.77;1.02;;;32.00;82.10;;;;;;4436778;32;20077;-65
2021/08/13 12:52:20;;;;;;;0.40;0.40;;;31.70;83.20;;;;;;4435853;32;20438;-64